Airfield :
LOGIN :

Register | Disclaimer

   EN    FR    IT 

 










Legend :    VFR   Marginal VFR   IFR   Intensive IFR   Very Intensive IFR
Visi :
Ceiling :
>= 8 km
>= 3000ft
5 to 8 km
1000 to 3000 ft
1500m to 5 km
500 to 1000 ft
800 to 1500m
200 to 500 ft
< 800m
< 200 ft
Symbols :   Thunderstorms  Fog  Heavy snow  Heavy precipitations  Wind > 20 kt
SIGMETs :     Misc.  Thunderstorms  Icing  Turbulence  Mountain Waves  Volcanic Ashes






- Airport Elevation : 1416 ft
- IATA code : ZRH


LSZH - Zurich

CURRENT METAR :
  • 052150Z 29006KT CAVOK 14/12 Q1019 NOSIG

EXPIRED METARs :
  • 052120Z 29004KT CAVOK 15/12 Q1019 NOSIG
  • 052050Z VRB02KT CAVOK 14/11 Q1019 NOSIG
  • 052020Z VRB01KT CAVOK 16/12 Q1019 NOSIG
  • 051950Z 04005KT CAVOK 17/12 Q1019 NOSIG
  • 051920Z 05004KT CAVOK 17/12 Q1018 NOSIG

TAF TAF LSZH
Valid from the 05 at 21:00 until the 07 at 03:00 UTC


052025Z 0521/0703 VRB03KT CAVOK TX27/0615Z TN10/0604Z
PROB40 0602/0605 5000 MIFG NSC
PROB40 0603/0606 2500 BR BKN003
BECMG 0607/0610 06006KT
BECMG 0617/0619 VRB03KT
ATIS : +41 43 816 2295 (DEP) +41 43 816 2294 (ARR)



MET'MAP, your aeronautical weather chart ! - Copyright ORBIFLY December 2007 - Disclaimer

ORBIFLY MET'MAP TEAM :

Programming & Development : Alexandra Zaïnal
Concept & original design : Baudouin d'Aumeries
Assistance for programming : Marc-Olivier Méhu
Technical & hardware support : Manuel Goepfert

Contact : metmap@orbifly.com




SOURCES & CREDITS :

   NOAA